createdAt,value
2023-07-02T00:00:56.245Z,79.60
2023-07-02T00:05:59.763Z,79.70
2023-07-02T00:11:04.648Z,79.50
2023-07-02T00:16:08.153Z,79.80
2023-07-02T00:21:14.479Z,79.50
2023-07-02T00:26:19.415Z,79.90
2023-07-02T00:31:23.274Z,79.70
2023-07-02T00:36:26.859Z,80.00
2023-07-02T00:41:31.712Z,79.60
2023-07-02T00:46:35.245Z,80.00
2023-07-02T00:51:39.066Z,80.10
2023-07-02T00:56:43.932Z,80.00
2023-07-02T01:01:51.147Z,80.00
2023-07-02T01:06:58.506Z,80.10
2023-07-02T01:12:06.313Z,80.00
2023-07-02T01:17:10.856Z,79.90
2023-07-02T01:22:15.974Z,80.00
2023-07-02T01:27:20.475Z,79.90
2023-07-02T01:32:24.174Z,80.20
2023-07-02T01:37:29.196Z,80.30
2023-07-02T01:42:32.635Z,80.10
2023-07-02T01:47:36.139Z,80.40
2023-07-02T01:52:41.046Z,80.20
2023-07-02T01:57:44.502Z,79.90
2023-07-02T02:02:48.040Z,79.90
2023-07-02T02:07:52.951Z,80.00
2023-07-02T02:12:56.421Z,80.00
2023-07-02T02:17:59.948Z,80.00
2023-07-02T02:23:04.904Z,79.70
2023-07-02T02:28:08.375Z,79.60
2023-07-02T02:33:11.799Z,79.50
2023-07-02T02:38:16.893Z,79.80
2023-07-02T02:43:22.005Z,79.40
2023-07-02T02:48:25.524Z,79.20
2023-07-02T02:53:30.413Z,78.70
2023-07-02T02:58:33.861Z,78.60
2023-07-02T03:03:40.343Z,78.80
2023-07-02T03:08:45.267Z,78.60
2023-07-02T03:13:48.826Z,78.40
2023-07-02T03:18:52.297Z,78.30
2023-07-02T03:23:57.240Z,78.20
2023-07-02T03:29:00.699Z,78.20
2023-07-02T03:34:06.315Z,78.10
2023-07-02T03:39:11.366Z,77.70
2023-07-02T03:44:14.965Z,77.30
2023-07-02T03:49:18.600Z,77.00
2023-07-02T03:54:23.468Z,76.70
2023-07-02T03:59:26.888Z,76.70
2023-07-02T04:04:30.566Z,76.40
2023-07-02T04:09:35.718Z,76.40
2023-07-02T04:14:39.203Z,75.50
2023-07-02T04:19:42.675Z,75.30
2023-07-02T04:24:50.943Z,75.10
2023-07-02T04:29:57.736Z,74.30
2023-07-02T04:35:01.171Z,73.90
2023-07-02T04:40:08.506Z,73.60
2023-07-02T04:45:16.048Z,73.50
2023-07-02T04:50:21.420Z,73.10
2023-07-02T04:55:26.254Z,73.30
2023-07-02T05:00:29.688Z,73.10
2023-07-02T05:05:33.270Z,73.10
2023-07-02T05:10:38.092Z,73.20
2023-07-02T05:15:42.317Z,73.40
2023-07-02T05:20:47.751Z,73.40
2023-07-02T05:25:52.940Z,73.30
2023-07-02T05:30:56.402Z,73.40
2023-07-02T05:35:59.826Z,73.40
2023-07-02T05:41:05.121Z,73.60
2023-07-02T05:46:08.573Z,73.60
2023-07-02T05:51:12.030Z,73.70
2023-07-02T05:56:16.917Z,73.50
2023-07-02T06:01:20.639Z,73.50
2023-07-02T06:06:25.587Z,73.60
2023-07-02T06:11:30.708Z,73.30
2023-07-02T06:16:34.602Z,73.20
2023-07-02T06:21:38.812Z,73.40
2023-07-02T06:26:43.672Z,73.30
2023-07-02T06:31:47.097Z,73.30
2023-07-02T06:36:50.792Z,73.10
2023-07-02T06:41:55.661Z,73.10
2023-07-02T06:46:59.330Z,72.80
2023-07-02T06:52:02.835Z,72.50
2023-07-02T06:57:07.984Z,72.20
2023-07-02T07:02:11.630Z,72.10
2023-07-02T07:07:15.617Z,72.40
2023-07-02T07:12:20.458Z,69.70
2023-07-02T07:17:24.031Z,69.00
2023-07-02T07:22:27.566Z,68.70
2023-07-02T07:27:32.413Z,67.90
2023-07-02T07:32:35.862Z,67.40
2023-07-02T07:37:39.300Z,67.40
2023-07-02T07:42:44.811Z,67.20
2023-07-02T07:47:48.340Z,67.20
2023-07-02T07:52:52.458Z,67.40
2023-07-02T07:57:57.304Z,67.50
2023-07-02T08:03:02.067Z,67.70
2023-07-02T08:08:05.916Z,67.30
2023-07-02T08:13:11.888Z,67.20
2023-07-02T08:18:16.100Z,66.80
2023-07-02T08:23:19.524Z,66.50
2023-07-02T08:28:24.390Z,66.20
2023-07-02T08:33:27.846Z,65.70
2023-07-02T08:38:31.288Z,66.10
2023-07-02T08:43:36.836Z,66.50
2023-07-02T08:48:40.348Z,66.30
2023-07-02T08:53:43.826Z,66.00
2023-07-02T08:58:48.670Z,66.00
2023-07-02T09:03:52.296Z,66.10
2023-07-02T09:08:55.731Z,66.40
2023-07-02T09:14:01.703Z,66.70
2023-07-02T09:19:09.064Z,66.10
2023-07-02T09:24:17.153Z,66.70
2023-07-02T09:29:24.569Z,67.10
2023-07-02T09:34:32.346Z,67.40
2023-07-02T09:39:37.060Z,67.60
2023-07-02T09:44:44.250Z,67.90
2023-07-02T09:49:52.039Z,68.20
2023-07-02T09:54:55.625Z,68.50
2023-07-02T10:00:01.442Z,68.80
2023-07-02T10:05:06.112Z,68.80
2023-07-02T10:10:10.407Z,69.10
2023-07-02T10:15:27.212Z,69.50
2023-07-02T10:20:38.541Z,69.10
2023-07-02T10:25:42.068Z,69.50
2023-07-02T10:30:47.047Z,69.10
2023-07-02T10:35:51.826Z,68.90
2023-07-02T10:40:59.329Z,68.80
2023-07-02T10:46:04.457Z,69.60
2023-07-02T10:51:14.402Z,69.60
2023-07-02T10:56:20.971Z,69.10
2023-07-02T11:01:27.212Z,69.60
2023-07-02T11:06:33.588Z,70.00
2023-07-02T11:11:37.042Z,70.40
2023-07-02T11:16:42.331Z,70.30
2023-07-02T11:21:54.109Z,70.50
2023-07-02T11:26:58.031Z,70.60
2023-07-02T11:32:10.530Z,70.40
2023-07-02T11:37:14.142Z,70.60
2023-07-02T11:42:17.647Z,70.70
2023-07-02T11:47:22.630Z,70.70
2023-07-02T11:52:26.097Z,70.90
2023-07-02T11:57:29.620Z,70.90
2023-07-02T12:02:34.753Z,71.00
2023-07-02T12:07:38.270Z,71.20
2023-07-02T12:12:41.736Z,71.50
2023-07-02T12:17:46.611Z,71.80
2023-07-02T12:22:50.072Z,71.80
2023-07-02T12:27:53.592Z,72.10
2023-07-02T12:32:58.501Z,71.70
2023-07-02T12:38:04.936Z,72.40
2023-07-02T12:43:08.552Z,72.20
2023-07-02T12:48:13.436Z,72.20
2023-07-02T12:53:16.934Z,72.40
2023-07-02T12:58:20.473Z,72.50
2023-07-02T13:03:26.501Z,72.60
2023-07-02T13:08:30.567Z,72.70
2023-07-02T13:13:33.988Z,72.90
2023-07-02T13:18:38.824Z,73.10
2023-07-02T13:23:42.844Z,73.30
2023-07-02T13:28:48.555Z,73.30
2023-07-02T13:33:53.585Z,73.50
2023-07-02T13:38:57.091Z,73.60
2023-07-02T13:44:02.725Z,73.90
2023-07-02T13:49:07.606Z,74.20
2023-07-02T13:54:15.744Z,73.90
2023-07-02T13:59:21.514Z,74.00
2023-07-02T14:04:25.040Z,74.00
2023-07-02T14:09:28.501Z,73.90
2023-07-02T14:14:33.645Z,74.10
2023-07-02T14:19:37.246Z,73.90
2023-07-02T14:24:40.709Z,73.90
2023-07-02T14:29:45.720Z,74.00
2023-07-02T14:34:49.270Z,74.40
2023-07-02T14:40:06.085Z,74.10
2023-07-02T14:45:17.781Z,74.30
2023-07-02T14:50:21.227Z,74.10
2023-07-02T14:55:24.646Z,74.40
2023-07-02T15:00:29.502Z,74.40
2023-07-02T15:05:33.058Z,74.40
2023-07-02T15:10:39.016Z,74.50
2023-07-02T15:15:45.301Z,75.00
2023-07-02T15:20:49.242Z,75.00
2023-07-02T15:25:53.706Z,75.20
2023-07-02T15:31:02.309Z,75.30
2023-07-02T15:36:06.833Z,75.40
2023-07-02T15:41:12.679Z,76.10
2023-07-02T15:46:19.210Z,75.80
2023-07-02T15:51:24.649Z,76.10
2023-07-02T15:56:28.443Z,76.30
2023-07-02T16:01:35.643Z,76.30
2023-07-02T16:06:39.342Z,76.40
2023-07-02T16:11:43.893Z,76.40
2023-07-02T16:16:55.321Z,76.60
2023-07-02T16:21:59.153Z,76.70
2023-07-02T16:27:03.594Z,77.10
2023-07-02T16:32:11.493Z,77.40
2023-07-02T16:37:15.015Z,77.60
2023-07-02T16:42:18.638Z,77.50
2023-07-02T16:47:23.633Z,77.50
2023-07-02T16:57:48.590Z,77.80
2023-07-02T17:02:53.585Z,77.50
2023-07-02T17:07:57.088Z,77.70
2023-07-02T17:13:00.529Z,77.70
2023-07-02T17:18:05.653Z,77.80
2023-07-02T17:23:09.109Z,77.60
2023-07-02T17:28:12.626Z,77.70
2023-07-02T17:33:18.135Z,77.70
2023-07-02T17:38:22.285Z,77.70
2023-07-02T17:43:25.873Z,77.70
2023-07-02T17:48:31.282Z,77.30
2023-07-02T17:53:34.788Z,77.50
2023-07-02T17:58:38.420Z,77.30
2023-07-02T18:09:05.814Z,77.80
2023-07-02T18:14:09.478Z,77.90
2023-07-02T18:19:14.440Z,77.90
2023-07-02T18:29:40.486Z,77.80
2023-07-02T18:34:47.369Z,77.90
2023-07-02T18:39:50.808Z,77.90
2023-07-02T18:44:55.086Z,78.10
2023-07-02T18:49:59.984Z,77.90
2023-07-02T18:55:03.604Z,77.80
2023-07-02T19:00:10.266Z,77.30
2023-07-02T19:05:15.318Z,77.70
2023-07-02T19:15:39.631Z,77.60
2023-07-02T19:20:44.597Z,77.50
2023-07-02T19:36:32.390Z,77.20
2023-07-02T19:41:35.930Z,77.30
2023-07-02T19:46:39.552Z,77.50
2023-07-02T19:57:14.424Z,77.50
2023-07-02T20:02:20.259Z,77.50
2023-07-02T20:07:25.634Z,77.70
2023-07-02T20:12:30.204Z,77.60
2023-07-02T20:17:35.221Z,77.40
2023-07-02T20:22:42.229Z,77.70
2023-07-02T20:27:45.668Z,78.00
2023-07-02T20:32:49.305Z,77.10
2023-07-02T20:37:56.705Z,77.00
2023-07-02T20:53:42.975Z,76.00
2023-07-02T20:58:46.452Z,76.10
2023-07-02T21:03:50.015Z,75.80
2023-07-02T21:08:55.004Z,76.10
2023-07-02T21:13:58.728Z,76.00
2023-07-02T21:19:02.352Z,75.70
2023-07-02T21:24:07.947Z,75.80
2023-07-02T21:29:11.672Z,75.70
2023-07-02T21:34:15.108Z,75.50
2023-07-02T21:39:19.988Z,75.60
2023-07-02T21:44:23.447Z,75.60
2023-07-02T21:49:27.007Z,75.50
2023-07-02T21:54:31.944Z,75.60
2023-07-02T21:59:35.405Z,75.50
2023-07-02T22:04:38.930Z,75.50
2023-07-02T22:09:44.082Z,75.40
2023-07-02T22:14:47.493Z,75.40
2023-07-02T22:19:50.962Z,75.40
2023-07-02T22:24:55.832Z,75.50
2023-07-02T22:29:59.257Z,75.20
2023-07-02T22:35:02.997Z,74.90
2023-07-02T22:40:10.215Z,74.90
2023-07-02T22:45:23.323Z,74.70
2023-07-02T22:50:27.764Z,74.90
2023-07-02T22:55:32.809Z,74.90
2023-07-02T23:00:36.398Z,74.80
2023-07-02T23:05:39.875Z,74.90
2023-07-02T23:10:44.954Z,74.90
2023-07-02T23:15:48.558Z,74.90
2023-07-02T23:20:55.743Z,75.10
2023-07-02T23:26:00.575Z,74.80
2023-07-02T23:31:06.056Z,74.80
2023-07-02T23:36:28.468Z,74.90
2023-07-02T23:41:33.378Z,74.80
2023-07-02T23:46:37.221Z,74.70
2023-07-02T23:51:40.700Z,74.80
2023-07-02T23:56:45.712Z,74.60
